createdAt,value
2018-07-10T00:02:31.990Z,15.60
2018-07-10T00:07:17.269Z,15.80
2018-07-10T00:12:00.833Z,15.90
2018-07-10T00:14:28.463Z,16.00
2018-07-10T00:16:56.118Z,16.00
2018-07-10T00:19:23.786Z,16.00
2018-07-10T00:21:51.677Z,16.00
2018-07-10T00:24:19.337Z,16.00
2018-07-10T00:26:47.074Z,16.00
2018-07-10T00:29:14.818Z,16.00
2018-07-10T00:31:42.452Z,16.00
2018-07-10T00:34:10.214Z,16.00
2018-07-10T00:36:37.885Z,16.00
2018-07-10T00:39:07.773Z,15.90
2018-07-10T00:41:36.739Z,16.00
2018-07-10T00:44:05.214Z,16.00
2018-07-10T00:46:35.534Z,16.00
2018-07-10T00:49:03.312Z,16.00
2018-07-10T00:51:33.281Z,15.90
2018-07-10T00:54:01.053Z,16.00
2018-07-10T00:56:28.806Z,16.00
2018-07-10T00:58:56.590Z,16.00
2018-07-10T01:01:25.426Z,16.00
2018-07-10T01:03:53.192Z,16.10
2018-07-10T01:06:21.389Z,16.10
2018-07-10T01:08:49.116Z,16.10
2018-07-10T01:11:17.834Z,16.10
2018-07-10T01:13:46.531Z,16.10
2018-07-10T01:16:25.840Z,16.10
2018-07-10T01:18:56.066Z,16.10
2018-07-10T01:21:24.776Z,16.10
2018-07-10T01:24:01.437Z,16.10
2018-07-10T01:26:32.195Z,16.10
2018-07-10T01:30:06.229Z,16.20
2018-07-10T01:32:34.096Z,16.20
2018-07-10T01:35:01.874Z,16.30
2018-07-10T01:37:29.646Z,16.20
2018-07-10T01:39:57.368Z,16.20
2018-07-10T01:42:25.095Z,16.10
2018-07-10T01:44:52.777Z,16.10
2018-07-10T01:47:20.474Z,16.00
2018-07-10T01:49:48.162Z,16.00
2018-07-10T01:52:15.933Z,16.10
2018-07-10T01:54:43.675Z,16.10
2018-07-10T01:57:11.385Z,16.10
2018-07-10T01:59:39.114Z,16.10
2018-07-10T02:02:06.845Z,16.00
2018-07-10T02:04:34.557Z,16.00
2018-07-10T02:07:02.274Z,15.90
2018-07-10T02:09:30.037Z,15.80
2018-07-10T02:11:57.798Z,15.70
2018-07-10T02:14:25.534Z,15.70
2018-07-10T02:16:53.242Z,15.70
2018-07-10T02:19:21.496Z,15.70
2018-07-10T02:21:49.240Z,15.60
2018-07-10T02:24:20.672Z,15.70
2018-07-10T02:26:48.670Z,15.60
2018-07-10T02:29:16.431Z,15.60
2018-07-10T02:31:44.102Z,15.50
2018-07-10T02:34:11.830Z,15.50
2018-07-10T02:36:39.564Z,15.50
2018-07-10T02:39:07.294Z,15.50
2018-07-10T02:41:35.056Z,15.40
2018-07-10T02:44:04.036Z,15.40
2018-07-10T02:46:33.011Z,15.30
2018-07-10T02:49:06.776Z,15.30
2018-07-10T02:51:35.500Z,15.30
2018-07-10T02:54:03.249Z,15.30
2018-07-10T02:56:31.381Z,15.30
2018-07-10T02:59:02.099Z,15.20
2018-07-10T03:01:29.846Z,15.20
2018-07-10T03:03:58.875Z,15.10
2018-07-10T03:06:26.604Z,15.10
2018-07-10T03:08:55.087Z,15.10
2018-07-10T03:11:22.806Z,15.00
2018-07-10T03:16:18.128Z,14.90
2018-07-10T03:18:45.874Z,14.90
2018-07-10T03:21:13.598Z,14.90
2018-07-10T03:23:41.366Z,14.90
2018-07-10T03:26:09.149Z,14.90
2018-07-10T03:28:36.910Z,14.80
2018-07-10T03:31:04.545Z,14.80
2018-07-10T03:33:32.186Z,14.80
2018-07-10T03:35:59.906Z,14.80
2018-07-10T03:38:27.708Z,14.80
2018-07-10T03:40:55.452Z,14.80
2018-07-10T03:43:23.500Z,14.80
2018-07-10T03:45:51.281Z,14.80
2018-07-10T03:48:19.040Z,14.80
2018-07-10T03:50:47.072Z,14.80
2018-07-10T03:53:14.797Z,14.80
2018-07-10T03:55:42.519Z,14.80
2018-07-10T03:58:10.248Z,14.80
2018-07-10T04:00:37.990Z,14.80
2018-07-10T04:03:05.711Z,14.80
2018-07-10T04:05:33.449Z,14.80
2018-07-10T04:08:04.014Z,14.70
2018-07-10T04:10:33.631Z,14.70
2018-07-10T04:13:06.057Z,14.70
2018-07-10T04:15:33.762Z,14.70
2018-07-10T04:18:20.496Z,14.70
2018-07-10T04:21:26.037Z,14.80
2018-07-10T04:24:09.098Z,14.80
2018-07-10T04:26:39.152Z,14.80
2018-07-10T04:29:15.958Z,14.90
2018-07-10T04:31:57.834Z,14.90
2018-07-10T04:34:26.838Z,15.00
2018-07-10T04:36:58.472Z,15.00
2018-07-10T04:39:26.242Z,15.10
2018-07-10T04:41:57.952Z,15.10
2018-07-10T04:44:31.346Z,15.20
2018-07-10T04:47:16.041Z,15.30
2018-07-10T04:49:58.028Z,15.30
2018-07-10T04:52:29.173Z,15.40
2018-07-10T04:55:10.148Z,15.40
2018-07-10T04:57:47.729Z,15.40
2018-07-10T05:00:15.457Z,15.50
2018-07-10T05:02:43.243Z,15.40
2018-07-10T05:05:11.038Z,15.50
2018-07-10T05:07:38.762Z,15.50
2018-07-10T05:10:06.493Z,15.50
2018-07-10T05:12:34.302Z,15.50
2018-07-10T05:15:02.024Z,15.50
2018-07-10T05:17:29.744Z,15.50
2018-07-10T05:19:57.468Z,15.60
2018-07-10T05:22:26.510Z,15.60
2018-07-10T05:24:55.905Z,15.60
2018-07-10T05:27:23.814Z,15.60
2018-07-10T05:29:51.551Z,15.60
2018-07-10T05:32:19.298Z,15.60
2018-07-10T05:34:47.050Z,15.70
2018-07-10T05:37:24.725Z,15.70
2018-07-10T05:39:52.418Z,15.70
2018-07-10T05:42:20.162Z,15.70
2018-07-10T05:44:47.893Z,15.80
2018-07-10T05:47:15.627Z,15.80
2018-07-10T05:49:43.360Z,15.80
2018-07-10T05:52:12.246Z,15.80
2018-07-10T05:54:41.185Z,15.80
2018-07-10T05:57:08.874Z,15.90
2018-07-10T05:59:36.600Z,16.00
2018-07-10T06:02:04.332Z,16.00
2018-07-10T06:04:32.168Z,16.10
2018-07-10T06:06:59.934Z,16.20
2018-07-10T06:09:27.642Z,16.30
2018-07-10T06:11:55.297Z,16.30
2018-07-10T06:14:23.280Z,16.30
2018-07-10T06:16:51.114Z,16.40
2018-07-10T06:19:18.814Z,16.40
2018-07-10T06:21:48.038Z,16.40
2018-07-10T06:24:30.704Z,16.40
2018-07-10T06:27:04.694Z,16.50
2018-07-10T06:29:43.710Z,16.50
2018-07-10T06:32:16.606Z,16.50
2018-07-10T06:34:44.334Z,16.60
2018-07-10T06:37:14.188Z,16.60
2018-07-10T06:39:41.937Z,16.70
2018-07-10T06:42:21.326Z,16.70
2018-07-10T06:44:49.077Z,16.80
2018-07-10T06:47:28.806Z,16.90
2018-07-10T06:49:58.346Z,17.10
2018-07-10T06:52:26.166Z,17.20
2018-07-10T06:55:10.090Z,17.20
2018-07-10T06:57:46.191Z,17.30
2018-07-10T07:00:13.810Z,17.30
2018-07-10T07:02:41.533Z,17.40
2018-07-10T07:07:59.853Z,17.40
2018-07-10T07:10:27.498Z,17.40
2018-07-10T07:12:55.186Z,17.30
2018-07-10T07:15:22.868Z,17.20
2018-07-10T07:17:51.842Z,17.20
2018-07-10T07:20:20.240Z,17.20
2018-07-10T07:22:48.536Z,17.30
2018-07-10T07:25:16.234Z,17.30
2018-07-10T07:27:43.941Z,17.40
2018-07-10T07:30:11.710Z,17.50
2018-07-10T07:32:39.440Z,17.50
2018-07-10T07:35:07.162Z,17.50
2018-07-10T07:37:37.506Z,17.50
2018-07-10T07:40:05.330Z,17.60
2018-07-10T07:42:33.013Z,17.50
2018-07-10T07:45:00.770Z,17.60
2018-07-10T07:47:29.407Z,17.60
2018-07-10T07:49:57.162Z,17.60
2018-07-10T07:52:26.688Z,17.60
2018-07-10T07:54:54.619Z,17.60
2018-07-10T07:57:26.284Z,17.70
2018-07-10T07:59:54.141Z,17.60
2018-07-10T08:02:22.632Z,17.70
2018-07-10T08:04:52.711Z,17.70
2018-07-10T08:07:21.749Z,17.70
2018-07-10T08:09:50.241Z,17.80
2018-07-10T08:12:18.097Z,17.80
2018-07-10T08:14:46.067Z,17.80
2018-07-10T08:17:14.097Z,17.80
2018-07-10T08:19:42.775Z,17.80
2018-07-10T08:22:10.590Z,17.80
2018-07-10T08:24:38.369Z,17.90
2018-07-10T08:27:06.094Z,17.90
2018-07-10T08:29:33.849Z,18.00
2018-07-10T08:32:01.596Z,18.00
2018-07-10T08:34:29.834Z,18.10
2018-07-10T08:36:57.476Z,18.10
2018-07-10T08:39:25.214Z,18.10
2018-07-10T08:41:52.941Z,18.20
2018-07-10T08:44:21.100Z,18.20
2018-07-10T08:46:53.134Z,18.30
2018-07-10T08:49:22.433Z,18.40
2018-07-10T08:51:51.609Z,18.60
2018-07-10T08:54:21.541Z,18.80
2018-07-10T08:56:49.742Z,19.00
2018-07-10T09:01:46.986Z,19.70
2018-07-10T09:04:15.781Z,19.80
2018-07-10T09:06:43.492Z,20.00
2018-07-10T09:09:11.214Z,20.00
2018-07-10T09:11:39.250Z,20.00
2018-07-10T09:14:06.965Z,20.10
2018-07-10T09:16:34.637Z,20.00
2018-07-10T09:19:02.467Z,20.00
2018-07-10T09:21:30.230Z,19.90
2018-07-10T09:23:58.653Z,19.80
2018-07-10T09:26:26.834Z,19.80
2018-07-10T09:28:54.644Z,19.80
2018-07-10T09:31:22.416Z,19.80
2018-07-10T09:33:50.227Z,19.90
2018-07-10T09:36:17.958Z,19.90
2018-07-10T09:38:45.712Z,20.00
2018-07-10T09:41:14.558Z,20.00
2018-07-10T09:43:43.442Z,20.10
2018-07-10T09:46:11.196Z,20.20
2018-07-10T09:48:38.944Z,20.30
2018-07-10T09:51:06.918Z,20.40
2018-07-10T09:53:34.682Z,20.70
2018-07-10T09:56:02.482Z,20.70
2018-07-10T09:58:30.524Z,20.70
2018-07-10T10:01:03.038Z,20.70
2018-07-10T10:03:31.558Z,20.70
2018-07-10T10:05:59.346Z,20.60
2018-07-10T10:08:27.108Z,20.60
2018-07-10T10:10:54.812Z,20.60
2018-07-10T10:13:22.537Z,20.60
2018-07-10T10:15:50.221Z,20.70
2018-07-10T10:18:17.965Z,21.10
2018-07-10T10:20:45.718Z,21.40
2018-07-10T10:23:14.133Z,21.50
2018-07-10T10:25:43.397Z,21.50
2018-07-10T10:28:11.154Z,21.40
2018-07-10T10:30:39.719Z,21.30
2018-07-10T10:33:08.307Z,21.10
2018-07-10T10:35:36.126Z,20.80
2018-07-10T10:38:04.417Z,20.60
2018-07-10T10:40:34.670Z,20.50
2018-07-10T10:43:04.741Z,20.20
2018-07-10T10:45:34.926Z,20.00
2018-07-10T10:48:03.126Z,19.80
2018-07-10T10:50:30.874Z,19.60
2018-07-10T10:52:58.710Z,19.40
2018-07-10T10:55:26.482Z,19.30
2018-07-10T10:57:54.876Z,19.10
2018-07-10T11:00:22.582Z,19.10
2018-07-10T11:02:50.763Z,19.10
2018-07-10T11:05:18.515Z,19.00
2018-07-10T11:07:46.283Z,18.90
2018-07-10T11:10:14.002Z,18.70
2018-07-10T11:12:41.726Z,18.70
2018-07-10T11:15:09.491Z,18.60
2018-07-10T11:17:46.055Z,18.60
2018-07-10T11:21:24.814Z,18.50
2018-07-10T11:23:55.883Z,18.50
2018-07-10T11:26:31.594Z,18.40
2018-07-10T11:28:59.347Z,18.30
2018-07-10T11:31:27.086Z,18.20
2018-07-10T11:33:54.821Z,18.20
2018-07-10T11:36:22.543Z,18.20
2018-07-10T11:38:50.590Z,18.20
2018-07-10T11:41:18.398Z,18.10
2018-07-10T11:43:46.278Z,18.10
2018-07-10T11:46:14.002Z,18.10
2018-07-10T11:48:41.717Z,18.10
2018-07-10T11:51:09.464Z,18.10
2018-07-10T11:53:37.675Z,18.10
2018-07-10T11:56:05.448Z,18.10
2018-07-10T11:58:33.234Z,18.10
2018-07-10T12:01:01.034Z,18.10
2018-07-10T12:03:37.590Z,18.10
2018-07-10T12:06:06.070Z,18.10
2018-07-10T12:08:33.750Z,18.20
2018-07-10T12:11:14.096Z,18.20
2018-07-10T12:13:42.086Z,18.30
2018-07-10T12:16:10.204Z,18.30
2018-07-10T12:18:37.958Z,18.20
2018-07-10T12:21:06.444Z,18.10
2018-07-10T12:23:34.249Z,18.00
2018-07-10T12:26:04.658Z,18.10
2018-07-10T12:28:32.612Z,18.00
2018-07-10T12:31:01.770Z,18.10
2018-07-10T12:33:29.503Z,18.20
2018-07-10T12:35:57.290Z,18.20
2018-07-10T12:38:25.080Z,18.30
2018-07-10T12:40:52.801Z,18.10
2018-07-10T12:43:20.594Z,18.00
2018-07-10T12:45:48.471Z,17.80
2018-07-10T12:48:16.231Z,17.60
2018-07-10T12:50:44.003Z,17.50
2018-07-10T12:53:12.499Z,17.30
2018-07-10T12:55:40.263Z,17.10
2018-07-10T12:58:08.079Z,17.10
2018-07-10T13:00:37.053Z,17.20
2018-07-10T13:03:06.498Z,17.20
2018-07-10T13:06:08.282Z,17.10
2018-07-10T13:08:36.058Z,17.10
2018-07-10T13:11:03.827Z,17.10
2018-07-10T13:13:31.593Z,17.00
2018-07-10T13:15:59.302Z,17.00
2018-07-10T13:18:29.591Z,17.00
2018-07-10T13:20:57.281Z,17.00
2018-07-10T13:23:25.048Z,16.90
2018-07-10T13:25:52.743Z,16.90
2018-07-10T13:28:20.525Z,16.90
2018-07-10T13:30:48.343Z,16.80
2018-07-10T13:33:16.073Z,16.70
2018-07-10T13:35:43.873Z,16.60
2018-07-10T13:38:11.906Z,16.60
2018-07-10T13:40:39.734Z,16.60
2018-07-10T13:43:07.610Z,16.60
2018-07-10T13:45:35.321Z,16.60
2018-07-10T13:48:03.050Z,16.50
2018-07-10T13:50:32.061Z,16.40
2018-07-10T13:53:01.078Z,16.40
2018-07-10T13:55:29.546Z,16.40
2018-07-10T13:58:06.942Z,16.40
2018-07-10T14:00:41.771Z,16.40
2018-07-10T14:03:10.071Z,16.30
2018-07-10T14:05:37.934Z,16.40
2018-07-10T14:08:05.764Z,16.30
2018-07-10T14:10:33.562Z,16.40
2018-07-10T14:13:01.687Z,16.50
2018-07-10T14:15:29.485Z,16.50
2018-07-10T14:17:57.935Z,16.60
2018-07-10T14:20:25.814Z,16.70
2018-07-10T14:22:53.569Z,16.70
2018-07-10T14:25:21.388Z,16.70
2018-07-10T14:27:49.166Z,16.80
2018-07-10T14:30:16.941Z,16.80
2018-07-10T14:32:44.678Z,16.80
2018-07-10T14:35:12.440Z,16.90
2018-07-10T14:37:40.194Z,16.90
2018-07-10T14:40:07.918Z,16.90
2018-07-10T14:42:36.365Z,16.80
2018-07-10T14:45:05.477Z,16.70
2018-07-10T14:47:33.362Z,16.80
2018-07-10T14:50:02.229Z,16.80
2018-07-10T14:52:29.998Z,16.70
2018-07-10T14:54:57.738Z,16.70
2018-07-10T14:57:25.670Z,16.60
2018-07-10T14:59:55.443Z,16.70
2018-07-10T15:02:23.198Z,16.70
2018-07-10T15:04:50.893Z,16.60
2018-07-10T15:07:19.318Z,16.60
2018-07-10T15:09:46.983Z,16.70
2018-07-10T15:12:14.714Z,16.70
2018-07-10T15:14:42.397Z,16.70
2018-07-10T15:17:15.778Z,16.60
2018-07-10T15:19:43.404Z,16.60
2018-07-10T15:22:11.025Z,16.50
2018-07-10T15:24:38.761Z,16.50
2018-07-10T15:27:06.522Z,16.40
2018-07-10T15:29:34.270Z,16.50
2018-07-10T15:32:02.023Z,16.50
2018-07-10T15:34:29.826Z,16.60
2018-07-10T15:36:57.532Z,16.80
2018-07-10T15:39:25.294Z,16.90
2018-07-10T15:41:53.570Z,16.90
2018-07-10T15:44:21.231Z,17.00
2018-07-10T15:46:49.332Z,17.00
2018-07-10T15:49:17.245Z,17.00
2018-07-10T15:51:45.580Z,17.00
2018-07-10T15:54:13.384Z,17.10
2018-07-10T15:56:41.155Z,17.10
2018-07-10T15:59:09.018Z,17.00
2018-07-10T16:01:36.799Z,17.00
2018-07-10T16:04:04.564Z,16.90
2018-07-10T16:06:33.476Z,16.70
2018-07-10T16:09:08.202Z,16.70
2018-07-10T16:11:36.458Z,16.80
2018-07-10T16:14:04.198Z,16.80
2018-07-10T16:16:31.955Z,16.80
2018-07-10T16:19:07.525Z,16.70
2018-07-10T16:22:17.968Z,16.70
2018-07-10T16:24:48.314Z,16.70
2018-07-10T16:27:19.734Z,16.80
2018-07-10T16:29:47.722Z,16.80
2018-07-10T16:32:15.826Z,16.70
2018-07-10T16:34:43.562Z,16.70
2018-07-10T16:37:11.389Z,16.70
2018-07-10T16:39:39.225Z,16.70
2018-07-10T16:42:12.551Z,16.60
2018-07-10T16:44:42.045Z,16.60
2018-07-10T16:47:28.839Z,16.50
2018-07-10T16:50:00.990Z,16.50
2018-07-10T16:52:37.166Z,16.60
2018-07-10T16:55:04.911Z,16.50
2018-07-10T16:57:32.757Z,16.40
2018-07-10T17:00:00.626Z,16.40
2018-07-10T17:02:28.738Z,16.30
2018-07-10T17:04:57.594Z,16.30
2018-07-10T17:07:25.284Z,16.20
2018-07-10T17:09:53.051Z,16.10
2018-07-10T17:12:20.794Z,16.00
2018-07-10T17:15:00.537Z,16.00
2018-07-10T17:17:28.865Z,15.90
2018-07-10T17:19:56.842Z,15.80
2018-07-10T17:22:24.942Z,15.80
2018-07-10T17:24:53.729Z,15.70
2018-07-10T17:27:32.102Z,15.70
2018-07-10T17:30:00.846Z,15.70
2018-07-10T17:32:28.669Z,15.70
2018-07-10T17:34:56.550Z,15.70
2018-07-10T17:39:52.031Z,15.50
2018-07-10T17:42:19.791Z,15.60
2018-07-10T17:44:47.880Z,15.50
2018-07-10T17:47:15.911Z,15.50
2018-07-10T17:49:44.119Z,15.50
2018-07-10T17:52:11.771Z,15.40
2018-07-10T17:54:39.503Z,15.40
2018-07-10T17:57:07.275Z,15.40
2018-07-10T17:59:35.036Z,15.40
2018-07-10T18:02:02.785Z,15.30
2018-07-10T18:04:30.547Z,15.30
2018-07-10T18:06:58.924Z,15.30
2018-07-10T18:09:26.678Z,15.30
2018-07-10T18:11:54.474Z,15.40
2018-07-10T18:14:22.222Z,15.40
2018-07-10T18:16:49.908Z,15.50
2018-07-10T18:19:17.674Z,15.50
2018-07-10T18:21:45.387Z,15.50
2018-07-10T18:24:13.179Z,15.60
2018-07-10T18:26:40.879Z,15.60
2018-07-10T18:29:08.641Z,15.60
2018-07-10T18:31:36.345Z,15.60
2018-07-10T18:34:04.154Z,15.60
2018-07-10T18:36:31.920Z,15.50
2018-07-10T18:38:59.720Z,15.50
2018-07-10T18:41:27.458Z,15.60
2018-07-10T18:43:55.263Z,15.60
2018-07-10T18:46:23.003Z,15.60
2018-07-10T18:48:50.778Z,15.50
2018-07-10T18:51:19.055Z,15.50
2018-07-10T18:53:47.017Z,15.40
2018-07-10T18:56:14.770Z,15.40
2018-07-10T18:58:50.431Z,15.30
2018-07-10T19:01:21.946Z,15.30
2018-07-10T19:03:49.712Z,15.20
2018-07-10T19:06:20.835Z,15.20
2018-07-10T19:08:48.637Z,15.20
2018-07-10T19:11:26.493Z,15.10
2018-07-10T19:13:54.884Z,15.10
2018-07-10T19:16:23.575Z,15.10
2018-07-10T19:18:51.962Z,15.10
2018-07-10T19:21:30.766Z,15.10
2018-07-10T19:23:59.810Z,15.10
2018-07-10T19:26:28.992Z,15.10
2018-07-10T19:30:03.227Z,15.10
2018-07-10T19:32:31.486Z,15.10
2018-07-10T19:35:00.158Z,15.10
2018-07-10T19:37:30.630Z,15.10
2018-07-10T19:39:58.419Z,15.00
2018-07-10T19:42:27.172Z,15.00
2018-07-10T19:44:55.293Z,15.00
2018-07-10T19:47:24.734Z,15.00
2018-07-10T19:49:53.751Z,15.00
2018-07-10T19:52:22.561Z,15.00
2018-07-10T19:57:29.659Z,14.90
2018-07-10T19:59:57.981Z,14.90
2018-07-10T20:02:25.967Z,15.00
2018-07-10T20:04:59.704Z,15.00
2018-07-10T20:07:31.467Z,15.00
2018-07-10T20:10:01.754Z,14.90
2018-07-10T20:12:42.419Z,14.90
2018-07-10T20:15:36.135Z,14.90
2018-07-10T20:18:19.270Z,14.80
2018-07-10T20:20:58.598Z,14.80
2018-07-10T20:23:37.056Z,14.70
2018-07-10T20:26:16.670Z,14.70
2018-07-10T20:28:50.624Z,14.70
2018-07-10T20:31:31.974Z,14.70
2018-07-10T20:34:10.866Z,14.60
2018-07-10T20:36:42.586Z,14.70
2018-07-10T20:39:11.218Z,14.70
2018-07-10T20:41:45.302Z,14.70
2018-07-10T20:44:16.278Z,14.70
2018-07-10T20:46:48.524Z,14.80
2018-07-10T20:51:57.445Z,14.80
2018-07-10T20:55:03.562Z,14.90
2018-07-10T20:57:36.262Z,14.90
2018-07-10T21:00:08.958Z,15.00
2018-07-10T21:04:55.542Z,15.00
2018-07-10T21:07:28.322Z,15.00
2018-07-10T21:10:30.608Z,15.00
2018-07-10T21:13:06.980Z,14.90
2018-07-10T21:15:50.103Z,15.00
2018-07-10T21:18:34.018Z,15.00
2018-07-10T21:21:12.210Z,15.00
2018-07-10T21:23:53.088Z,15.00
2018-07-10T21:26:36.383Z,15.00
2018-07-10T21:29:14.564Z,15.00
2018-07-10T21:32:20.357Z,15.00
2018-07-10T21:34:49.401Z,15.00
2018-07-10T21:40:02.742Z,15.00
2018-07-10T21:42:41.778Z,15.00
2018-07-10T21:45:19.218Z,15.10
2018-07-10T21:47:55.849Z,15.00
2018-07-10T21:52:53.351Z,15.00
2018-07-10T21:55:21.070Z,15.00
2018-07-10T21:57:48.937Z,15.00
2018-07-10T22:00:16.666Z,15.00
2018-07-10T22:02:44.632Z,15.00
2018-07-10T22:05:12.395Z,15.00
2018-07-10T22:07:40.902Z,15.00
2018-07-10T22:10:08.708Z,15.00
2018-07-10T22:12:45.930Z,15.00
2018-07-10T22:15:13.722Z,15.00
2018-07-10T22:17:42.848Z,15.10
2018-07-10T22:20:10.611Z,15.10
2018-07-10T22:22:38.382Z,15.00
2018-07-10T22:25:07.512Z,15.00
2018-07-10T22:27:38.950Z,15.00
2018-07-10T22:30:12.780Z,15.00
2018-07-10T22:32:46.012Z,14.90
2018-07-10T22:35:15.058Z,15.00
2018-07-10T22:37:42.805Z,15.00
2018-07-10T22:40:10.505Z,15.00
2018-07-10T22:42:38.262Z,15.00
2018-07-10T22:45:06.007Z,15.00
2018-07-10T22:47:38.853Z,15.00
2018-07-10T22:50:08.041Z,15.00
2018-07-10T22:52:43.536Z,15.00
2018-07-10T22:55:13.432Z,15.00
2018-07-10T22:57:41.199Z,15.00
2018-07-10T23:00:09.399Z,14.90
2018-07-10T23:02:37.149Z,14.90
2018-07-10T23:05:04.866Z,15.00
2018-07-10T23:07:32.533Z,14.90
2018-07-10T23:10:00.287Z,14.90
2018-07-10T23:12:28.034Z,14.80
2018-07-10T23:14:55.799Z,14.70
2018-07-10T23:17:23.529Z,14.70
2018-07-10T23:19:51.240Z,14.70
2018-07-10T23:22:19.004Z,14.70
2018-07-10T23:24:46.742Z,14.70
2018-07-10T23:27:14.489Z,14.70
2018-07-10T23:29:42.240Z,14.70
2018-07-10T23:32:09.993Z,14.80
2018-07-10T23:34:37.748Z,14.80
2018-07-10T23:37:10.694Z,14.90
2018-07-10T23:39:48.884Z,14.80
2018-07-10T23:44:47.289Z,14.80
2018-07-10T23:47:33.879Z,14.80
2018-07-10T23:50:13.321Z,14.80
2018-07-10T23:52:51.285Z,14.80
2018-07-10T23:55:19.046Z,14.90
2018-07-10T23:57:46.872Z,14.80
